Time,TemperatureF,DewpointF,PressureIn,WindDirection,WindDirectionDegrees,WindSpeedMPH,WindSpeedGustMPH,Humidity,HourlyPrecipIn,Conditions,Clouds,dailyrainin,SolarRadiationWatts/m^2,SoftwareType,DateUTC
2014-02-18 00:13:00,43.5,35.4,26.92,SW,233,12.0,16.0,73,0.00,,,0.00,0,WeatherCatV1.02B4,2014-02-18 07:13:00,
2014-02-18 00:28:00,42.7,35.7,26.93,NNE,22,0.0,3.0,76,0.00,,,0.00,0,WeatherCatV1.02B4,2014-02-18 07:28:00,
2014-02-18 00:43:00,41.6,34.9,26.95,NW,304,3.0,4.0,77,0.00,,,0.00,0,WeatherCatV1.02B4,2014-02-18 07:43:00,
2014-02-18 00:58:00,39.2,33.9,26.95,East,92,5.0,5.0,81,0.00,,,0.00,0,WeatherCatV1.02B4,2014-02-18 07:58:00,
2014-02-18 01:13:00,38.6,33.9,26.97,WSW,256,1.0,1.0,83,0.00,,,0.00,0,WeatherCatV1.02B4,2014-02-18 08:13:00,
2014-02-18 01:28:00,38.0,33.6,26.97,ENE,58,0.0,0.0,84,0.00,,,0.00,0,WeatherCatV1.02B4,2014-02-18 08:28:00,
2014-02-18 01:43:00,37.8,33.4,26.98,East,87,0.0,8.0,84,0.00,,,0.00,0,WeatherCatV1.02B4,2014-02-18 08:43:00,
2014-02-18 01:58:00,37.5,33.1,27.00,SE,125,0.0,1.0,84,0.00,,,0.00,0,WeatherCatV1.02B4,2014-02-18 08:58:00,
2014-02-18 02:13:00,36.9,33.1,27.01,NW,324,0.0,1.0,86,0.00,,,0.00,0,WeatherCatV1.02B4,2014-02-18 09:13:00,
2014-02-18 02:28:00,36.5,33.0,27.01,NW,324,0.0,0.0,87,0.00,,,0.00,0,WeatherCatV1.02B4,2014-02-18 09:28:00,
2014-02-18 02:43:00,36.1,32.6,27.02,WNW,290,0.0,1.0,87,0.00,,,0.00,0,WeatherCatV1.02B4,2014-02-18 09:43:00,
2014-02-18 02:58:00,35.8,32.6,27.02,WSW,249,0.0,0.0,88,0.00,,,0.00,0,WeatherCatV1.02B4,2014-02-18 09:58:00,
2014-02-18 03:13:00,35.5,32.3,27.03,WSW,249,3.0,3.0,88,0.00,,,0.00,0,WeatherCatV1.02B4,2014-02-18 10:13:00,
2014-02-18 03:28:00,35.2,32.0,27.03,WSW,249,0.0,1.0,88,0.00,,,0.00,0,WeatherCatV1.02B4,2014-02-18 10:28:00,
2014-02-18 03:43:00,34.6,31.4,27.04,NE,49,0.0,0.0,88,0.00,,,0.00,0,WeatherCatV1.02B4,2014-02-18 10:43:00,
2014-02-18 03:58:00,34.3,31.1,27.04,NE,49,0.0,1.0,88,0.00,,,0.00,0,WeatherCatV1.02B4,2014-02-18 10:58:00,
2014-02-18 04:13:00,33.9,31.0,27.04,SE,126,1.0,1.0,89,0.00,,,0.00,0,WeatherCatV1.02B4,2014-02-18 11:13:00,
2014-02-18 04:28:00,33.1,30.2,27.04,East,88,0.0,1.0,89,0.00,,,0.00,0,WeatherCatV1.02B4,2014-02-18 11:28:00,
2014-02-18 04:43:00,32.5,29.9,27.05,East,88,0.0,0.0,90,0.00,,,0.00,0,WeatherCatV1.02B4,2014-02-18 11:43:00,
2014-02-18 04:58:00,32.3,29.7,27.06,East,88,0.0,0.0,90,0.00,,,0.00,0,WeatherCatV1.02B4,2014-02-18 11:58:00,
2014-02-18 05:13:00,32.1,29.5,27.07,East,88,0.0,0.0,90,0.00,,,0.00,0,WeatherCatV1.02B4,2014-02-18 12:13:00,
2014-02-18 05:28:00,31.9,29.6,27.07,NE,39,0.0,0.0,91,0.00,,,0.00,0,WeatherCatV1.02B4,2014-02-18 12:28:00,
2014-02-18 05:43:00,31.9,29.8,27.08,NNW,332,0.0,1.0,92,0.00,,,0.00,0,WeatherCatV1.02B4,2014-02-18 12:43:00,
2014-02-18 05:58:00,31.9,29.8,27.08,North,355,0.0,0.0,92,0.00,,,0.00,0,WeatherCatV1.02B4,2014-02-18 12:58:00,
2014-02-18 06:13:00,31.8,29.7,27.09,NNW,338,0.0,0.0,92,0.00,,,0.00,0,WeatherCatV1.02B4,2014-02-18 13:13:00,
2014-02-18 06:28:00,31.8,30.0,27.09,NNW,341,0.0,0.0,93,0.00,,,0.00,0,WeatherCatV1.02B4,2014-02-18 13:28:00,
2014-02-18 06:43:00,31.9,30.1,27.09,NNW,341,0.0,1.0,93,0.00,,,0.00,0,WeatherCatV1.02B4,2014-02-18 13:43:00,
2014-02-18 06:58:00,32.0,30.2,27.09,NNW,341,0.0,0.0,93,0.00,,,0.00,0,WeatherCatV1.02B4,2014-02-18 13:58:00,
2014-02-18 07:13:00,31.9,30.1,27.09,WNW,296,0.0,2.0,93,0.00,,,0.00,0,WeatherCatV1.02B4,2014-02-18 14:13:00,
2014-02-18 07:28:00,31.8,30.0,27.09,WNW,296,0.0,1.0,93,0.00,,,0.00,0,WeatherCatV1.02B4,2014-02-18 14:28:00,
2014-02-18 07:43:00,31.7,29.9,27.09,WNW,296,0.0,0.0,93,0.00,,,0.00,0,WeatherCatV1.02B4,2014-02-18 14:43:00,
2014-02-18 07:58:00,31.7,29.9,27.10,WNW,296,0.0,0.0,93,0.00,,,0.00,9,WeatherCatV1.02B4,2014-02-18 14:58:00,
2014-02-18 08:13:00,31.8,30.0,27.10,WNW,296,0.0,1.0,93,0.00,,,0.00,26,WeatherCatV1.02B4,2014-02-18 15:13:00,
2014-02-18 08:28:00,31.9,30.1,27.10,WNW,296,0.0,0.0,93,0.00,,,0.00,40,WeatherCatV1.02B4,2014-02-18 15:28:00,
2014-02-18 08:43:00,32.0,30.2,27.11,WNW,296,0.0,0.0,93,0.00,,,0.00,54,WeatherCatV1.02B4,2014-02-18 15:43:00,
2014-02-18 08:58:00,32.2,30.4,27.12,WNW,296,0.0,0.0,93,0.00,,,0.00,77,WeatherCatV1.02B4,2014-02-18 15:58:00,
2014-02-18 09:13:00,32.8,31.3,27.11,WNW,296,0.0,0.0,94,0.00,,,0.00,90,WeatherCatV1.02B4,2014-02-18 16:13:00,
2014-02-18 09:28:00,33.2,31.4,27.12,WNW,296,0.0,0.0,93,0.00,,,0.00,90,WeatherCatV1.02B4,2014-02-18 16:28:00,
2014-02-18 09:58:00,33.9,31.8,27.11,WNW,296,0.0,0.0,92,0.00,,,0.00,146,WeatherCatV1.02B4,2014-02-18 16:58:00,
2014-02-18 10:13:00,35.2,32.6,27.10,WNW,296,0.0,0.0,90,0.00,,,0.00,167,WeatherCatV1.02B4,2014-02-18 17:13:00,
2014-02-18 10:28:00,35.6,32.1,27.10,WNW,296,0.0,1.0,87,0.00,,,0.00,130,WeatherCatV1.02B4,2014-02-18 17:28:00,
2014-02-18 10:43:00,35.7,32.5,27.10,WNW,296,0.0,0.0,88,0.00,,,0.00,163,WeatherCatV1.02B4,2014-02-18 17:43:00,
2014-02-18 10:58:00,36.5,32.7,27.10,WNW,296,0.0,0.0,86,0.00,,,0.00,121,WeatherCatV1.02B4,2014-02-18 17:58:00,
2014-02-18 11:13:00,37.0,32.6,27.09,WNW,296,0.0,0.0,84,0.00,,,0.00,135,WeatherCatV1.02B4,2014-02-18 18:13:00,
2014-02-18 11:28:00,37.5,33.1,27.09,WNW,296,0.0,0.0,84,0.00,,,0.00,181,WeatherCatV1.02B4,2014-02-18 18:28:00,
2014-02-18 11:43:00,37.6,32.9,27.10,WNW,296,0.0,0.0,83,0.00,,,0.00,144,WeatherCatV1.02B4,2014-02-18 18:43:00,
2014-02-18 11:58:00,37.5,32.8,27.09,WNW,296,1.0,1.0,83,0.00,,,0.00,274,WeatherCatV1.02B4,2014-02-18 18:58:00,
2014-02-18 12:13:00,37.8,32.8,27.08,WNW,296,0.0,1.0,82,0.00,,,0.00,330,WeatherCatV1.02B4,2014-02-18 19:13:00,
2014-02-18 12:28:00,37.9,33.2,27.07,WNW,296,0.0,0.0,83,0.00,,,0.00,258,WeatherCatV1.02B4,2014-02-18 19:28:00,
2014-02-18 12:43:00,38.3,33.3,27.06,WNW,296,0.0,0.0,82,0.00,,,0.00,227,WeatherCatV1.02B4,2014-02-18 19:43:00,
2014-02-18 12:58:00,38.8,33.5,27.05,WNW,296,0.0,0.0,81,0.00,,,0.00,264,WeatherCatV1.02B4,2014-02-18 19:58:00,
2014-02-18 13:13:00,39.1,33.8,27.04,WNW,296,0.0,0.0,81,0.00,,,0.00,299,WeatherCatV1.02B4,2014-02-18 20:13:00,
2014-02-18 13:28:00,39.8,34.1,27.03,WNW,296,0.0,0.0,80,0.00,,,0.00,336,WeatherCatV1.02B4,2014-02-18 20:28:00,
2014-02-18 13:43:00,40.6,34.0,27.02,WNW,296,0.0,1.0,77,0.00,,,0.00,265,WeatherCatV1.02B4,2014-02-18 20:43:00,
2014-02-18 13:58:00,41.8,34.1,27.01,WNW,296,1.0,2.0,74,0.00,,,0.00,332,WeatherCatV1.02B4,2014-02-18 20:58:00,
2014-02-18 14:13:00,41.8,33.8,27.00,WNW,296,0.0,0.0,73,0.00,,,0.00,323,WeatherCatV1.02B4,2014-02-18 21:13:00,
2014-02-18 14:28:00,41.9,33.9,26.99,West,259,0.0,0.0,73,0.00,,,0.00,218,WeatherCatV1.02B4,2014-02-18 21:28:00,
2014-02-18 14:43:00,42.5,34.5,26.98,West,259,0.0,1.0,73,0.00,,,0.00,192,WeatherCatV1.02B4,2014-02-18 21:43:00,
2014-02-18 14:58:00,42.8,33.7,26.98,West,259,0.0,0.0,70,0.00,,,0.00,207,WeatherCatV1.02B4,2014-02-18 21:58:00,
2014-02-18 15:13:00,43.4,33.6,26.97,SE,126,0.0,1.0,68,0.00,,,0.00,172,WeatherCatV1.02B4,2014-02-18 22:13:00,
2014-02-18 15:28:00,43.3,33.5,26.97,West,274,5.0,7.0,68,0.00,,,0.00,118,WeatherCatV1.02B4,2014-02-18 22:28:00,
2014-02-18 15:43:00,42.5,33.4,26.96,WNW,298,1.0,2.0,70,0.00,,,0.00,135,WeatherCatV1.02B4,2014-02-18 22:43:00,
2014-02-18 15:58:00,42.6,33.2,26.95,ENE,78,0.0,1.0,69,0.00,,,0.00,116,WeatherCatV1.02B4,2014-02-18 22:58:00,
2014-02-18 16:13:00,42.7,33.2,26.95,SW,214,0.0,0.0,69,0.00,,,0.00,81,WeatherCatV1.02B4,2014-02-18 23:13:00,
2014-02-18 16:25:00,42.7,33.6,26.94,SW,221,0.0,1.0,70,0.00,,,0.00,74,WeatherCatV1.02B4,2014-02-18 23:25:00,
2014-02-18 16:28:00,42.6,33.5,26.94,SW,234,1.0,2.0,70,0.00,,,0.00,79,WeatherCatV1.02B4,2014-02-18 23:28:00,
2014-02-18 16:30:00,42.5,33.4,26.94,SW,231,0.0,1.0,70,0.00,,,0.00,81,WeatherCatV1.02B4,2014-02-18 23:30:00,
2014-02-18 16:35:00,42.4,33.7,26.94,SW,233,0.0,1.0,71,0.00,,,0.00,95,WeatherCatV1.02B4,2014-02-18 23:35:00,
2014-02-18 16:40:00,42.2,33.5,26.94,WSW,245,1.0,2.0,71,0.00,,,0.00,91,WeatherCatV1.02B4,2014-02-18 23:40:00,
2014-02-18 16:45:00,42.2,33.5,26.93,WSW,250,1.0,3.0,71,0.00,,,0.00,84,WeatherCatV1.02B4,2014-02-18 23:45:00,
2014-02-18 16:50:00,42.3,33.6,26.93,South,172,1.0,4.0,71,0.00,,,0.00,98,WeatherCatV1.02B4,2014-02-18 23:50:00,
2014-02-18 16:55:00,42.4,33.7,26.93,SSE,149,1.0,4.0,71,0.00,,,0.00,84,WeatherCatV1.02B4,2014-02-18 23:55:00,
2014-02-18 17:00:00,42.6,33.9,26.92,South,181,1.0,4.0,71,0.00,,,0.00,83,WeatherCatV1.02B4,2014-02-19 00:00:00,
2014-02-18 17:14:00,42.8,34.1,26.92,SSW,197,2.0,2.0,71,0.00,,,0.00,77,WeatherCatV1.02B4,2014-02-19 00:14:00,
2014-02-18 17:29:00,43.6,34.1,26.91,SSE,163,0.0,1.0,69,0.00,,,0.00,62,WeatherCatV1.02B4,2014-02-19 00:29:00,
2014-02-18 17:44:00,43.7,34.2,26.90,SSE,150,0.0,1.0,69,0.00,,,0.00,35,WeatherCatV1.02B4,2014-02-19 00:44:00,
2014-02-18 17:59:00,43.4,33.9,26.90,SSE,149,0.0,0.0,69,0.00,,,0.00,12,WeatherCatV1.02B4,2014-02-19 00:59:00,
2014-02-18 18:14:00,42.5,33.4,26.89,SSE,151,2.0,2.0,70,0.00,,,0.00,0,WeatherCatV1.02B4,2014-02-19 01:14:00,
2014-02-18 18:29:00,40.8,33.2,26.88,North,0,3.0,3.0,74,0.00,,,0.00,0,WeatherCatV1.02B4,2014-02-19 01:29:00,
2014-02-18 18:44:00,39.6,33.3,26.87,ENE,72,0.0,0.0,78,0.00,,,0.00,0,WeatherCatV1.02B4,2014-02-19 01:44:00,
2014-02-18 18:59:00,38.7,32.8,26.87,ENE,72,1.0,1.0,79,0.00,,,0.00,0,WeatherCatV1.02B4,2014-02-19 01:59:00,
2014-02-18 19:14:00,37.9,32.6,26.86,ESE,119,0.0,1.0,81,0.00,,,0.00,0,WeatherCatV1.02B4,2014-02-19 02:14:00,
2014-02-18 19:29:00,37.3,32.6,26.85,NE,42,0.0,0.0,83,0.00,,,0.00,0,WeatherCatV1.02B4,2014-02-19 02:29:00,
2014-02-18 19:44:00,37.1,32.4,26.84,NE,42,0.0,0.0,83,0.00,,,0.00,0,WeatherCatV1.02B4,2014-02-19 02:44:00,
2014-02-18 19:59:00,37.2,32.5,26.83,North,9,0.0,1.0,83,0.00,,,0.00,0,WeatherCatV1.02B4,2014-02-19 02:59:00,
2014-02-18 20:14:00,37.0,32.6,26.82,North,11,1.0,1.0,84,0.00,,,0.00,0,WeatherCatV1.02B4,2014-02-19 03:14:00,
2014-02-18 20:29:00,37.1,32.7,26.82,ENE,74,0.0,1.0,84,0.00,,,0.00,0,WeatherCatV1.02B4,2014-02-19 03:29:00,
2014-02-18 20:44:00,37.0,32.6,26.81,NNW,329,0.0,2.0,84,0.00,,,0.00,0,WeatherCatV1.02B4,2014-02-19 03:44:00,
2014-02-18 20:59:00,37.1,32.7,26.80,NE,35,8.0,8.0,84,0.00,,,0.00,0,WeatherCatV1.02B4,2014-02-19 03:59:00,
2014-02-18 21:14:00,37.2,32.5,26.79,ESE,115,0.0,0.0,83,0.00,,,0.00,0,WeatherCatV1.02B4,2014-02-19 04:14:00,
2014-02-18 21:29:00,37.1,32.7,26.78,ENE,77,1.0,1.0,84,0.00,,,0.00,0,WeatherCatV1.02B4,2014-02-19 04:29:00,
2014-02-18 21:44:00,36.8,32.4,26.77,East,84,0.0,0.0,84,0.00,,,0.00,0,WeatherCatV1.02B4,2014-02-19 04:44:00,
2014-02-18 21:59:00,36.5,32.1,26.77,ENE,57,0.0,0.0,84,0.00,,,0.00,0,WeatherCatV1.02B4,2014-02-19 04:59:00,
2014-02-18 22:14:00,36.4,32.3,26.76,ESE,106,6.0,9.0,85,0.00,,,0.00,0,WeatherCatV1.02B4,2014-02-19 05:14:00,
2014-02-18 22:29:00,36.6,32.5,26.76,NNW,327,1.0,3.0,85,0.00,,,0.00,0,WeatherCatV1.02B4,2014-02-19 05:29:00,
2014-02-18 22:44:00,37.1,33.0,26.75,WNW,287,0.0,0.0,85,0.00,,,0.00,0,WeatherCatV1.02B4,2014-02-19 05:44:00,
2014-02-18 22:59:00,36.8,32.7,26.74,ESE,108,0.0,0.0,85,0.00,,,0.00,0,WeatherCatV1.02B4,2014-02-19 05:59:00,
2014-02-18 23:14:00,36.4,32.6,26.73,NW,306,0.0,0.0,86,0.00,,,0.00,0,WeatherCatV1.02B4,2014-02-19 06:14:00,
2014-02-18 23:29:00,36.0,32.5,26.73,West,269,2.0,2.0,87,0.00,,,0.00,0,WeatherCatV1.02B4,2014-02-19 06:29:00,
2014-02-18 23:44:00,35.6,32.4,26.72,East,85,3.0,4.0,88,0.00,,,0.00,0,WeatherCatV1.02B4,2014-02-19 06:44:00,
2014-02-18 23:59:00,35.6,32.7,26.72,East,98,2.0,4.0,89,0.00,,,0.00,0,WeatherCatV1.02B4,2014-02-19 06:59:00,